createdAt,value
2023-09-06T00:02:20.341Z,23.17
2023-09-06T00:04:47.324Z,22.79
2023-09-06T00:07:14.166Z,22.83
2023-09-06T00:09:40.887Z,22.91
2023-09-06T00:12:07.683Z,22.89
2023-09-06T00:14:35.677Z,22.83
2023-09-06T00:17:02.410Z,22.76
2023-09-06T00:19:29.104Z,22.81
2023-09-06T00:21:55.835Z,22.77
2023-09-06T00:24:22.540Z,22.75
2023-09-06T00:26:49.220Z,22.77
2023-09-06T00:29:15.951Z,22.78
2023-09-06T00:31:44.016Z,22.81
2023-09-06T00:34:10.708Z,22.90
2023-09-06T00:36:37.542Z,22.90
2023-09-06T00:39:04.667Z,22.91
2023-09-06T00:41:31.347Z,22.94
2023-09-06T00:43:58.026Z,22.90
2023-09-06T00:46:24.767Z,22.93
2023-09-06T00:48:52.825Z,22.88
2023-09-06T00:51:19.566Z,22.87
2023-09-06T00:53:46.221Z,22.76
2023-09-06T00:56:12.896Z,22.76
2023-09-06T00:58:39.559Z,22.70
2023-09-06T01:01:06.450Z,22.66
2023-09-06T01:03:33.400Z,22.55
2023-09-06T01:06:05.738Z,22.39
2023-09-06T01:08:36.156Z,22.45
2023-09-06T01:11:15.158Z,22.55
2023-09-06T01:13:41.959Z,22.54
2023-09-06T01:16:09.014Z,22.47
2023-09-06T01:18:35.899Z,22.54
2023-09-06T01:21:06.155Z,22.36
2023-09-06T01:23:35.804Z,22.17
2023-09-06T01:26:02.502Z,22.01
2023-09-06T01:28:29.632Z,21.91
2023-09-06T01:30:56.688Z,21.71
2023-09-06T01:33:23.473Z,21.59
2023-09-06T01:35:50.617Z,21.58
2023-09-06T01:38:17.266Z,21.67
2023-09-06T01:40:45.477Z,21.71
2023-09-06T01:43:12.211Z,21.66
2023-09-06T01:45:44.980Z,21.65
2023-09-06T01:48:11.726Z,21.65
2023-09-06T01:50:38.473Z,21.58
2023-09-06T01:53:05.172Z,21.65
2023-09-06T01:55:31.855Z,21.69
2023-09-06T01:57:59.913Z,21.74
2023-09-06T02:00:26.650Z,21.59
2023-09-06T02:02:53.450Z,21.63
2023-09-06T02:05:20.338Z,21.55
2023-09-06T02:07:47.458Z,21.50
2023-09-06T02:10:14.175Z,21.61
2023-09-06T02:12:40.912Z,21.72
2023-09-06T02:15:09.811Z,21.79
2023-09-06T02:17:36.551Z,21.80
2023-09-06T02:20:03.537Z,21.83
2023-09-06T02:22:30.183Z,21.72
2023-09-06T02:24:57.000Z,21.74
2023-09-06T02:27:23.673Z,21.55
2023-09-06T02:29:50.411Z,21.68
2023-09-06T02:32:18.432Z,21.65
2023-09-06T02:34:45.140Z,21.56
2023-09-06T02:37:11.924Z,21.60
2023-09-06T02:39:38.679Z,21.65
2023-09-06T02:42:05.467Z,21.58
2023-09-06T02:44:32.295Z,21.66
2023-09-06T02:46:58.983Z,21.73
2023-09-06T02:49:26.970Z,21.71
2023-09-06T02:51:53.617Z,21.70
2023-09-06T02:54:20.262Z,21.76
2023-09-06T02:56:46.944Z,21.75
2023-09-06T02:59:13.656Z,21.67
2023-09-06T03:01:40.421Z,21.62
2023-09-06T03:04:07.697Z,21.65
2023-09-06T03:06:35.741Z,21.63
2023-09-06T03:09:06.071Z,21.69
2023-09-06T03:11:32.838Z,21.62
2023-09-06T03:13:59.501Z,21.34
2023-09-06T03:16:26.269Z,21.31
2023-09-06T03:18:52.984Z,21.19
2023-09-06T03:21:20.013Z,21.10
2023-09-06T03:23:48.064Z,20.96
2023-09-06T03:26:15.533Z,20.88
2023-09-06T03:28:42.852Z,20.95
2023-09-06T03:31:15.630Z,20.81
2023-09-06T03:33:42.421Z,20.97
2023-09-06T03:36:09.513Z,20.96
2023-09-06T03:38:36.983Z,20.94
2023-09-06T03:41:05.059Z,20.95
2023-09-06T03:43:31.996Z,20.98
2023-09-06T03:45:59.330Z,21.03
2023-09-06T03:48:26.224Z,21.07
2023-09-06T03:50:55.311Z,21.16
2023-09-06T03:53:24.371Z,21.07
2023-09-06T03:55:52.658Z,21.01
2023-09-06T03:58:21.051Z,21.09
2023-09-06T04:00:48.179Z,21.08
2023-09-06T04:03:24.708Z,21.08
2023-09-06T04:05:52.689Z,20.95
2023-09-06T04:08:21.158Z,20.83
2023-09-06T04:10:53.405Z,20.68
2023-09-06T04:13:21.422Z,20.72
2023-09-06T04:15:48.745Z,20.73
2023-09-06T04:18:15.809Z,20.74
2023-09-06T04:20:43.813Z,20.80
2023-09-06T04:23:10.834Z,20.75
2023-09-06T04:25:41.060Z,20.77
2023-09-06T04:28:08.492Z,20.85
2023-09-06T04:30:38.005Z,20.84
2023-09-06T04:33:05.242Z,20.69
2023-09-06T04:35:33.853Z,20.54
2023-09-06T04:38:01.170Z,20.44
2023-09-06T04:40:29.210Z,20.38
2023-09-06T04:42:55.963Z,20.32
2023-09-06T04:45:23.253Z,20.13
2023-09-06T04:47:51.452Z,20.11
2023-09-06T04:50:18.275Z,20.28
2023-09-06T04:52:45.994Z,20.46
2023-09-06T04:55:13.184Z,20.43
2023-09-06T04:57:40.189Z,20.31
2023-09-06T05:00:09.562Z,20.05
2023-09-06T05:02:36.457Z,19.89
2023-09-06T05:05:05.227Z,19.76
2023-09-06T05:07:32.079Z,19.74
2023-09-06T05:10:01.004Z,19.59
2023-09-06T05:12:27.756Z,19.35
2023-09-06T05:14:54.458Z,19.21
2023-09-06T05:17:21.132Z,19.22
2023-09-06T05:19:51.157Z,19.09
2023-09-06T05:22:20.094Z,19.25
2023-09-06T05:24:46.824Z,19.42
2023-09-06T05:27:14.237Z,19.33
2023-09-06T05:29:40.881Z,19.46
2023-09-06T05:32:07.731Z,19.52
2023-09-06T05:34:34.498Z,19.41
2023-09-06T05:37:04.802Z,19.30
2023-09-06T05:39:32.809Z,19.39
2023-09-06T05:42:00.421Z,19.30
2023-09-06T05:44:27.205Z,19.46
2023-09-06T05:46:53.951Z,19.47
2023-09-06T05:49:22.329Z,19.51
2023-09-06T05:51:49.193Z,19.34
2023-09-06T05:54:16.355Z,19.29
2023-09-06T05:56:46.354Z,19.25
2023-09-06T05:59:13.315Z,19.41
2023-09-06T06:01:40.401Z,19.60
2023-09-06T06:04:07.215Z,19.70
2023-09-06T06:06:34.063Z,19.62
2023-09-06T06:09:00.792Z,19.37
2023-09-06T06:11:28.527Z,19.20
2023-09-06T06:14:09.824Z,19.13
2023-09-06T06:16:38.393Z,19.32
2023-09-06T06:19:05.108Z,19.36
2023-09-06T06:21:31.852Z,19.34
2023-09-06T06:23:58.640Z,19.13
2023-09-06T06:26:25.399Z,19.14
2023-09-06T06:28:52.513Z,19.18
2023-09-06T06:31:20.629Z,18.98
2023-09-06T06:33:47.333Z,19.11
2023-09-06T06:36:13.993Z,19.04
2023-09-06T06:38:40.665Z,19.18
2023-09-06T06:41:14.055Z,19.25
2023-09-06T06:43:40.812Z,19.37
2023-09-06T06:46:21.900Z,19.32
2023-09-06T06:48:49.919Z,19.58
2023-09-06T06:51:16.603Z,19.30
2023-09-06T06:56:09.877Z,19.84
2023-09-06T06:58:36.596Z,20.17
2023-09-06T07:01:03.355Z,20.31
2023-09-06T07:03:30.090Z,20.35
2023-09-06T07:05:58.251Z,20.21
2023-09-06T07:08:24.980Z,20.33
2023-09-06T07:10:51.707Z,20.30
2023-09-06T07:13:18.441Z,20.49
2023-09-06T07:15:45.209Z,20.60
2023-09-06T07:18:12.028Z,20.72
2023-09-06T07:20:38.851Z,20.85
2023-09-06T07:23:06.904Z,20.84
2023-09-06T07:25:33.625Z,20.76
2023-09-06T07:28:00.337Z,20.71
2023-09-06T07:30:27.034Z,20.79
2023-09-06T07:32:53.835Z,20.92
2023-09-06T07:35:20.629Z,21.00
2023-09-06T07:37:47.517Z,21.18
2023-09-06T07:40:15.681Z,21.29
2023-09-06T07:42:42.404Z,21.29
2023-09-06T07:45:10.002Z,21.39
2023-09-06T07:47:36.875Z,21.34
2023-09-06T07:50:03.966Z,21.42
2023-09-06T07:52:30.629Z,21.60
2023-09-06T07:54:59.060Z,21.66
2023-09-06T07:57:27.082Z,21.77
2023-09-06T07:59:53.778Z,21.81
2023-09-06T08:02:20.552Z,21.97
2023-09-06T08:04:48.371Z,22.08
2023-09-06T08:07:15.262Z,22.13
2023-09-06T08:09:41.926Z,22.24
2023-09-06T08:12:08.656Z,22.33
2023-09-06T08:14:36.676Z,22.43
2023-09-06T08:17:03.745Z,22.44
2023-09-06T08:19:30.454Z,22.55
2023-09-06T08:21:57.114Z,22.59
2023-09-06T08:24:23.817Z,22.72
2023-09-06T08:26:50.543Z,22.84
2023-09-06T08:29:17.273Z,22.80
2023-09-06T08:31:45.408Z,22.93
2023-09-06T08:34:12.173Z,23.03
2023-09-06T08:36:38.847Z,23.08
2023-09-06T08:39:05.631Z,23.10
2023-09-06T08:41:32.515Z,23.05
2023-09-06T08:43:59.224Z,23.14
2023-09-06T08:46:28.353Z,23.22
2023-09-06T08:48:56.596Z,23.31
2023-09-06T08:51:23.669Z,23.22
2023-09-06T08:53:50.344Z,23.34
2023-09-06T08:56:17.005Z,23.28
2023-09-06T08:58:43.756Z,23.41
2023-09-06T09:01:10.622Z,23.38
2023-09-06T09:03:37.520Z,23.53
2023-09-06T09:06:05.691Z,23.59
2023-09-06T09:08:32.386Z,23.61
2023-09-06T09:11:09.163Z,23.69
2023-09-06T09:13:35.880Z,23.67
2023-09-06T09:16:08.586Z,23.61
2023-09-06T09:18:36.085Z,23.64
2023-09-06T09:21:02.880Z,23.42
2023-09-06T09:23:31.251Z,23.68
2023-09-06T09:25:58.103Z,23.45
2023-09-06T09:28:24.991Z,23.66
2023-09-06T09:30:51.813Z,23.80
2023-09-06T09:33:19.250Z,23.73
2023-09-06T09:35:47.653Z,23.86
2023-09-06T09:38:14.350Z,23.97
2023-09-06T09:40:52.791Z,23.95
2023-09-06T09:43:25.022Z,24.11
2023-09-06T09:45:51.793Z,24.13
2023-09-06T09:48:18.812Z,24.19
2023-09-06T09:50:45.929Z,24.20
2023-09-06T09:53:20.346Z,24.34
2023-09-06T09:55:54.046Z,24.42
2023-09-06T09:58:20.899Z,24.37
2023-09-06T10:00:47.610Z,24.46
2023-09-06T10:03:14.514Z,24.52
2023-09-06T10:05:41.404Z,24.50
2023-09-06T10:08:08.864Z,24.48
2023-09-06T10:10:36.215Z,24.15
2023-09-06T10:13:04.551Z,24.02
2023-09-06T10:15:31.214Z,24.34
2023-09-06T10:17:57.966Z,24.37
2023-09-06T10:20:24.721Z,24.42
2023-09-06T10:22:52.070Z,24.53
2023-09-06T10:25:18.927Z,24.65
2023-09-06T10:27:46.217Z,24.57
2023-09-06T10:30:14.608Z,24.37
2023-09-06T10:32:41.358Z,24.51
2023-09-06T10:35:19.644Z,24.36
2023-09-06T10:38:03.034Z,24.68
2023-09-06T10:41:02.957Z,24.73
2023-09-06T10:43:30.208Z,24.79
2023-09-06T10:45:58.387Z,24.84
2023-09-06T10:48:25.613Z,24.85
2023-09-06T10:51:04.350Z,24.82
2023-09-06T10:53:31.218Z,24.88
2023-09-06T10:55:57.924Z,24.94
2023-09-06T10:58:24.670Z,25.05
2023-09-06T11:01:16.194Z,25.09
2023-09-06T11:03:47.008Z,25.12
2023-09-06T11:06:13.704Z,25.17
2023-09-06T11:08:40.371Z,25.14
2023-09-06T11:11:08.141Z,25.29
2023-09-06T11:13:34.964Z,25.24
2023-09-06T11:16:02.257Z,25.05
2023-09-06T11:18:30.896Z,24.68
2023-09-06T11:20:58.091Z,24.80
2023-09-06T11:23:24.763Z,24.97
2023-09-06T11:25:55.739Z,25.16
2023-09-06T11:28:22.469Z,25.25
2023-09-06T11:30:49.500Z,25.47
2023-09-06T11:33:16.558Z,25.36
2023-09-06T11:35:45.365Z,25.52
2023-09-06T11:38:12.060Z,25.67
2023-09-06T11:40:38.740Z,25.68
2023-09-06T11:43:06.484Z,25.70
2023-09-06T11:45:33.421Z,25.66
2023-09-06T11:48:00.203Z,25.50
2023-09-06T11:50:26.871Z,25.43
2023-09-06T11:52:58.408Z,25.45
2023-09-06T11:55:25.778Z,25.42
2023-09-06T11:57:52.439Z,25.51
2023-09-06T12:00:19.323Z,25.37
2023-09-06T12:02:46.062Z,25.42
2023-09-06T12:05:12.785Z,25.42
2023-09-06T12:07:39.441Z,25.42
2023-09-06T12:10:08.108Z,25.31
2023-09-06T12:12:35.293Z,25.19
2023-09-06T12:15:02.114Z,25.16
2023-09-06T12:17:28.869Z,25.30
2023-09-06T12:19:58.842Z,25.42
2023-09-06T12:22:25.560Z,25.38
2023-09-06T12:24:52.203Z,25.61
2023-09-06T12:27:20.275Z,25.82
2023-09-06T12:29:46.973Z,26.02
2023-09-06T12:32:13.825Z,26.20
2023-09-06T12:34:41.052Z,26.10
2023-09-06T12:37:07.795Z,26.26
2023-09-06T12:39:34.529Z,26.36
2023-09-06T12:42:01.235Z,26.53
2023-09-06T12:44:29.390Z,26.61
2023-09-06T12:46:56.168Z,26.64
2023-09-06T12:49:22.874Z,26.91
2023-09-06T12:51:49.530Z,26.76
2023-09-06T12:54:16.201Z,26.86
2023-09-06T12:56:42.888Z,26.86
2023-09-06T12:59:09.737Z,26.99
2023-09-06T13:01:37.847Z,26.74
2023-09-06T13:04:04.976Z,26.98
2023-09-06T13:06:31.764Z,27.23
2023-09-06T13:08:58.420Z,27.19
2023-09-06T13:11:25.117Z,27.49
2023-09-06T13:13:51.786Z,27.61
2023-09-06T13:16:18.540Z,27.60
2023-09-06T13:18:46.680Z,27.62
2023-09-06T13:21:13.540Z,27.64
2023-09-06T13:23:40.596Z,27.55
2023-09-06T13:26:07.276Z,27.83
2023-09-06T13:28:33.954Z,28.09
2023-09-06T13:31:00.679Z,28.01
2023-09-06T13:33:29.412Z,28.14
2023-09-06T13:35:57.847Z,28.25
2023-09-06T13:38:24.587Z,28.35
2023-09-06T13:40:51.331Z,28.38
2023-09-06T13:43:18.077Z,28.42
2023-09-06T13:45:44.794Z,28.59
2023-09-06T13:48:11.676Z,28.61
2023-09-06T13:50:38.403Z,28.64
2023-09-06T13:53:06.421Z,28.63
2023-09-06T13:55:33.143Z,28.87
2023-09-06T13:57:59.835Z,29.06
2023-09-06T14:00:26.633Z,29.18
2023-09-06T14:02:53.472Z,29.18
2023-09-06T14:05:20.323Z,29.32
2023-09-06T14:07:47.105Z,29.41
2023-09-06T14:10:15.341Z,29.49
2023-09-06T14:12:42.008Z,29.62
2023-09-06T14:15:09.621Z,29.66
2023-09-06T14:17:36.388Z,29.76
2023-09-06T14:20:03.775Z,29.84
2023-09-06T14:22:30.522Z,29.78
2023-09-06T14:24:57.180Z,29.84
2023-09-06T14:27:25.240Z,29.65
2023-09-06T14:29:52.368Z,29.64
2023-09-06T14:32:19.103Z,29.76
2023-09-06T14:34:45.801Z,29.73
2023-09-06T14:37:12.517Z,29.85
2023-09-06T14:39:39.241Z,29.97
2023-09-06T14:42:06.145Z,29.96
2023-09-06T14:44:34.286Z,29.87
2023-09-06T14:47:01.017Z,29.99
2023-09-06T14:49:29.461Z,30.05
2023-09-06T14:51:56.132Z,29.82
2023-09-06T14:54:22.808Z,29.61
2023-09-06T14:56:49.557Z,29.38
2023-09-06T14:59:18.608Z,29.29
2023-09-06T15:01:46.640Z,28.99
2023-09-06T15:04:13.396Z,29.08
2023-09-06T15:06:57.946Z,29.16
2023-09-06T15:09:25.289Z,28.91
2023-09-06T15:11:52.525Z,29.19
2023-09-06T15:14:19.232Z,29.39
2023-09-06T15:16:47.657Z,29.64
2023-09-06T15:19:14.533Z,29.79
2023-09-06T15:21:41.280Z,29.90
2023-09-06T15:24:08.199Z,30.03
2023-09-06T15:26:34.861Z,30.11
2023-09-06T15:29:01.586Z,30.25
2023-09-06T15:31:28.255Z,30.27
2023-09-06T15:33:56.409Z,30.39
2023-09-06T15:36:23.151Z,30.16
2023-09-06T15:38:49.919Z,29.95
2023-09-06T15:41:16.586Z,29.96
2023-09-06T15:43:43.314Z,30.14
2023-09-06T15:46:10.075Z,30.31
2023-09-06T15:48:37.006Z,30.40
2023-09-06T15:51:05.164Z,30.52
2023-09-06T15:53:32.101Z,30.57
2023-09-06T15:55:58.835Z,30.61
2023-09-06T15:58:25.616Z,30.57
2023-09-06T16:00:52.303Z,30.58
2023-09-06T16:03:19.083Z,30.64
2023-09-06T16:05:45.896Z,30.59
2023-09-06T16:08:13.985Z,30.63
2023-09-06T16:10:40.685Z,30.54
2023-09-06T16:13:07.360Z,30.64
2023-09-06T16:15:34.034Z,30.64
2023-09-06T16:18:00.912Z,30.64
2023-09-06T16:20:27.654Z,30.60
2023-09-06T16:22:54.345Z,30.61
2023-09-06T16:25:22.341Z,30.59
2023-09-06T16:27:49.069Z,30.51
2023-09-06T16:30:15.884Z,30.48
2023-09-06T16:32:42.892Z,30.47
2023-09-06T16:35:09.952Z,30.49
2023-09-06T16:37:37.060Z,30.48
2023-09-06T16:40:04.423Z,30.47
2023-09-06T16:42:32.490Z,30.48
2023-09-06T16:44:59.288Z,30.60
2023-09-06T16:47:25.964Z,30.76
2023-09-06T16:49:52.645Z,31.00
2023-09-06T16:52:19.396Z,31.07
2023-09-06T16:54:46.195Z,31.15
2023-09-06T16:57:12.915Z,31.23
2023-09-06T16:59:40.968Z,31.38
2023-09-06T17:02:07.734Z,31.42
2023-09-06T17:04:34.403Z,31.27
2023-09-06T17:07:01.187Z,31.07
2023-09-06T17:09:27.845Z,30.84
2023-09-06T17:11:54.558Z,30.52
2023-09-06T17:14:21.216Z,30.32
2023-09-06T17:16:49.480Z,30.14
2023-09-06T17:19:16.332Z,29.96
2023-09-06T17:21:43.100Z,29.83
2023-09-06T17:24:10.096Z,29.68
2023-09-06T17:26:37.038Z,29.55
2023-09-06T17:29:03.808Z,29.37
2023-09-06T17:31:30.659Z,29.27
2023-09-06T17:33:58.745Z,29.19
2023-09-06T17:36:25.405Z,29.15
2023-09-06T17:38:52.147Z,29.07
2023-09-06T17:41:18.916Z,29.00
2023-09-06T17:43:45.631Z,28.95
2023-09-06T17:46:12.329Z,28.87
2023-09-06T17:48:39.328Z,28.77
2023-09-06T17:51:07.526Z,28.62
2023-09-06T17:53:34.946Z,28.55
2023-09-06T17:56:02.270Z,28.48
2023-09-06T17:58:29.245Z,28.42
2023-09-06T18:00:56.096Z,28.36
2023-09-06T18:03:22.993Z,28.34
2023-09-06T18:05:50.792Z,28.31
2023-09-06T18:08:19.000Z,28.25
2023-09-06T18:10:45.719Z,28.13
2023-09-06T18:13:12.456Z,28.08
2023-09-06T18:15:39.378Z,28.06
2023-09-06T18:18:06.202Z,27.99
2023-09-06T18:20:33.029Z,27.94
2023-09-06T18:22:59.717Z,27.79
2023-09-06T18:25:27.708Z,27.68
2023-09-06T18:27:54.369Z,27.69
2023-09-06T18:30:22.112Z,27.61
2023-09-06T18:32:49.678Z,27.52
2023-09-06T18:35:16.433Z,27.52
2023-09-06T18:37:43.243Z,27.40
2023-09-06T18:40:10.548Z,27.29
2023-09-06T18:42:38.531Z,27.29
2023-09-06T18:45:06.305Z,27.18
2023-09-06T18:47:33.178Z,27.15
2023-09-06T18:50:00.143Z,27.06
2023-09-06T18:52:26.868Z,26.99
2023-09-06T18:54:53.559Z,26.99
2023-09-06T18:57:20.210Z,26.93
2023-09-06T18:59:48.325Z,26.90
2023-09-06T19:02:15.082Z,26.95
2023-09-06T19:04:43.122Z,26.87
2023-09-06T19:07:09.770Z,26.85
2023-09-06T19:09:36.433Z,26.79
2023-09-06T19:12:03.312Z,26.76
2023-09-06T19:14:30.123Z,26.72
2023-09-06T19:16:58.259Z,26.65
2023-09-06T19:19:24.995Z,26.68
2023-09-06T19:21:51.659Z,26.67
2023-09-06T19:24:18.335Z,26.65
2023-09-06T19:26:45.021Z,26.64
2023-09-06T19:29:11.770Z,26.51
2023-09-06T19:31:38.444Z,26.28
2023-09-06T19:34:06.544Z,26.23
2023-09-06T19:36:33.247Z,26.16
2023-09-06T19:38:59.917Z,26.18
2023-09-06T19:41:26.631Z,26.16
2023-09-06T19:43:53.333Z,26.18
2023-09-06T19:46:20.049Z,26.15
2023-09-06T19:49:03.524Z,26.07
2023-09-06T19:51:34.066Z,26.03
2023-09-06T19:54:00.698Z,25.90
2023-09-06T19:56:27.468Z,25.94
2023-09-06T19:58:54.149Z,25.88
2023-09-06T20:01:21.288Z,25.76
2023-09-06T20:03:48.103Z,25.68
2023-09-06T20:06:14.912Z,25.59
2023-09-06T20:08:42.976Z,25.61
2023-09-06T20:11:09.674Z,25.66
2023-09-06T20:13:36.338Z,25.61
2023-09-06T20:16:03.131Z,25.53
2023-09-06T20:18:30.009Z,25.45
2023-09-06T20:20:56.937Z,25.15
2023-09-06T20:23:23.729Z,25.18
2023-09-06T20:25:54.540Z,25.03
2023-09-06T20:28:21.260Z,25.07
2023-09-06T20:30:47.947Z,25.21
2023-09-06T20:33:14.745Z,25.12
2023-09-06T20:35:42.996Z,24.93
2023-09-06T20:38:09.730Z,24.79
2023-09-06T20:40:36.600Z,24.84
2023-09-06T20:43:04.696Z,24.79
2023-09-06T20:45:31.485Z,24.90
2023-09-06T20:47:58.236Z,24.91
2023-09-06T20:50:24.929Z,24.74
2023-09-06T20:52:51.569Z,24.86
2023-09-06T20:55:18.247Z,24.83
2023-09-06T20:57:44.966Z,24.78
2023-09-06T21:00:13.353Z,24.80
2023-09-06T21:02:40.113Z,24.85
2023-09-06T21:05:07.275Z,24.79
2023-09-06T21:07:33.974Z,24.76
2023-09-06T21:10:00.692Z,24.72
2023-09-06T21:12:27.382Z,24.50
2023-09-06T21:14:54.176Z,24.46
2023-09-06T21:17:22.263Z,24.41
2023-09-06T21:19:49.223Z,24.36
2023-09-06T21:22:15.900Z,24.25
2023-09-06T21:24:42.645Z,24.16
2023-09-06T21:27:09.323Z,24.21
2023-09-06T21:29:35.969Z,24.17
2023-09-06T21:32:02.721Z,23.98
2023-09-06T21:34:30.852Z,23.90
2023-09-06T21:36:57.614Z,23.99
2023-09-06T21:39:24.338Z,23.99
2023-09-06T21:41:50.988Z,23.92
2023-09-06T21:44:17.667Z,23.76
2023-09-06T21:46:44.328Z,23.65
2023-09-06T21:49:10.996Z,23.71
2023-09-06T21:51:38.974Z,23.94
2023-09-06T21:54:05.809Z,24.01
2023-09-06T21:56:32.575Z,24.11
2023-09-06T21:58:59.292Z,23.97
2023-09-06T22:01:26.054Z,23.89
2023-09-06T22:04:11.304Z,23.92
2023-09-06T22:06:57.956Z,23.76
2023-09-06T22:09:44.422Z,23.62
2023-09-06T22:12:29.933Z,23.61
2023-09-06T22:14:56.606Z,23.74
2023-09-06T22:17:23.418Z,23.77
2023-09-06T22:19:50.180Z,23.75
2023-09-06T22:22:18.233Z,23.67
2023-09-06T22:24:44.974Z,23.69
2023-09-06T22:27:11.666Z,23.74
2023-09-06T22:29:38.457Z,23.80
2023-09-06T22:32:05.933Z,23.81
2023-09-06T22:34:32.670Z,23.85
2023-09-06T22:36:59.426Z,23.87
2023-09-06T22:39:27.473Z,23.92
2023-09-06T22:41:54.141Z,23.94
2023-09-06T22:44:20.846Z,23.97
2023-09-06T22:46:47.599Z,23.97
2023-09-06T22:49:14.418Z,24.00
2023-09-06T22:51:41.103Z,23.96
2023-09-06T22:54:07.842Z,23.94
2023-09-06T22:56:35.831Z,23.83
2023-09-06T22:59:02.905Z,23.91
2023-09-06T23:01:29.628Z,23.91
2023-09-06T23:03:56.443Z,23.90
2023-09-06T23:06:23.539Z,23.97
2023-09-06T23:08:50.236Z,23.94
2023-09-06T23:11:16.951Z,23.83
2023-09-06T23:13:44.922Z,23.80
2023-09-06T23:16:11.629Z,23.77
2023-09-06T23:18:38.698Z,23.77
2023-09-06T23:21:05.365Z,23.61
2023-09-06T23:23:32.012Z,23.59
2023-09-06T23:25:58.702Z,23.61
2023-09-06T23:28:25.381Z,23.46
2023-09-06T23:30:54.523Z,23.51
2023-09-06T23:33:21.356Z,23.61
2023-09-06T23:35:48.039Z,23.49
2023-09-06T23:38:14.669Z,23.56
2023-09-06T23:40:41.315Z,23.59
2023-09-06T23:43:07.982Z,23.49
2023-09-06T23:45:44.156Z,23.42
2023-09-06T23:48:12.177Z,23.43
2023-09-06T23:50:38.826Z,23.53
2023-09-06T23:53:05.497Z,23.45
2023-09-06T23:55:34.412Z,23.35
2023-09-06T23:58:01.105Z,23.29
